Hatsu Courage — V7JC7 — position and weather

sailwx.info

Track history (hours):
 
Tides and Currents Weather Stations Pressure Air Temp Water Temp Dewpoint Dewpoint Depression Visibility Wind Speed Wind Dir Waves Ship Positions

Hatsu Courage (Marshall Islands)

Last reported at 2018-May-18 01:32 UTC. Time now 2018-Jun-22 09:05 UTC.
Position N 25°01' E 120°25'.
Warning: this ship's position is 35 days out of date.

Length 200 m; draft 10.9 m.

Type: Cargo ship. MMSI: 538006034.

Date/timePositionNaut miles runAvg speedWind from/ knotsBaromVisibWave heightAir tempDewpointWater temp
2018-May-18 01:32N 25°01' E 120°25'4712.7
2018-May-17 21:48N 24°21' E 119°57'412.1
2018-May-17 21:29N 24°18' E 119°54'911.0
2018-May-17 20:42N 24°10' E 119°50'511.1
2018-May-17 20:16N 24°05' E 119°50'8113.4
2018-May-17 14:16N 22°45' E 119°45'513.6
2018-May-17 13:55N 22°41' E 119°42'813.3
2018-May-17 13:18N 22°34' E 119°38'412.8
2018-May-17 12:58N 22°30' E 119°35'612.7
2018-May-17 12:29N 22°25' E 119°32'612.1
2018-May-17 11:58N 22°20' E 119°28'611.9
2018-May-17 11:30N 22°15' E 119°25'612.3
2018-May-17 11:00N 22°09' E 119°22'612.7
2018-May-17 10:30N 22°04' E 119°18'612.6
2018-May-17 10:00N 21°59' E 119°14'612.3
2018-May-17 09:30N 21°54' E 119°11'612.0
2018-May-17 09:00N 21°48' E 119°08'812.0
2018-May-17 08:20N 21°42' E 119°03'  
Track history (hours):
 
Tides and Currents Weather Stations Pressure Air Temp Water Temp Dewpoint Dewpoint Depression Visibility Wind Speed Wind Dir Waves Ship Positions

Hatsu Courage (Marshall Islands)

Last reported at 2018-May-18 01:32 UTC. Time now 2018-Jun-22 09:05 UTC.
Position N 25°01' E 120°25'.
Warning: this ship's position is 35 days out of date.

Length 200 m; draft 10.9 m.

Type: Cargo ship. MMSI: 538006034.

Date/timePositionNaut miles runAvg speedWind from/ knotsBaromVisibWave heightAir tempDewpointWater temp
2018-May-18 01:32N 25°01' E 120°25'4712.7
2018-May-17 21:48N 24°21' E 119°57'412.1
2018-May-17 21:29N 24°18' E 119°54'911.0
2018-May-17 20:42N 24°10' E 119°50'511.1
2018-May-17 20:16N 24°05' E 119°50'8113.4
2018-May-17 14:16N 22°45' E 119°45'513.6
2018-May-17 13:55N 22°41' E 119°42'813.3
2018-May-17 13:18N 22°34' E 119°38'412.8
2018-May-17 12:58N 22°30' E 119°35'612.7
2018-May-17 12:29N 22°25' E 119°32'612.1
2018-May-17 11:58N 22°20' E 119°28'611.9
2018-May-17 11:30N 22°15' E 119°25'612.3
2018-May-17 11:00N 22°09' E 119°22'612.7
2018-May-17 10:30N 22°04' E 119°18'612.6
2018-May-17 10:00N 21°59' E 119°14'612.3
2018-May-17 09:30N 21°54' E 119°11'612.0
2018-May-17 09:00N 21°48' E 119°08'812.0
2018-May-17 08:20N 21°42' E 119°03'  

Dump ship's entire track history